sensor_id;sensor_type;location;lat;lon;timestamp;P1;durP1;ratioP1;P2;durP2;ratioP2
59978;SDS011;45839;44.882;20.650;2023-02-08T00:00:44;34.20;;;19.10;;
59978;SDS011;45839;44.882;20.650;2023-02-08T00:03:11;34.88;;;19.38;;
59978;SDS011;45839;44.882;20.650;2023-02-08T00:05:37;35.38;;;18.63;;
59978;SDS011;45839;44.882;20.650;2023-02-08T00:08:03;35.78;;;18.60;;
59978;SDS011;45839;44.882;20.650;2023-02-08T00:10:29;35.38;;;19.00;;
59978;SDS011;45839;44.882;20.650;2023-02-08T00:12:55;33.20;;;18.48;;
59978;SDS011;45839;44.882;20.650;2023-02-08T00:15:21;31.67;;;18.27;;
59978;SDS011;45839;44.882;20.650;2023-02-08T00:17:48;34.50;;;19.15;;
59978;SDS011;45839;44.882;20.650;2023-02-08T00:20:14;37.45;;;20.30;;
59978;SDS011;45839;44.882;20.650;2023-02-08T00:22:40;31.00;;;17.70;;
59978;SDS011;45839;44.882;20.650;2023-02-08T00:25:07;33.47;;;18.63;;
59978;SDS011;45839;44.882;20.650;2023-02-08T00:27:33;31.17;;;17.73;;
59978;SDS011;45839;44.882;20.650;2023-02-08T00:29:59;33.20;;;17.75;;
59978;SDS011;45839;44.882;20.650;2023-02-08T00:32:26;33.97;;;18.35;;
59978;SDS011;45839;44.882;20.650;2023-02-08T00:34:52;33.58;;;17.52;;
59978;SDS011;45839;44.882;20.650;2023-02-08T00:37:18;34.40;;;18.35;;
59978;SDS011;45839;44.882;20.650;2023-02-08T00:39:44;36.10;;;19.60;;
59978;SDS011;45839;44.882;20.650;2023-02-08T00:42:10;37.97;;;20.17;;
59978;SDS011;45839;44.882;20.650;2023-02-08T00:44:36;35.60;;;19.88;;
59978;SDS011;45839;44.882;20.650;2023-02-08T00:47:02;32.55;;;18.13;;
59978;SDS011;45839;44.882;20.650;2023-02-08T00:49:28;35.50;;;19.13;;
59978;SDS011;45839;44.882;20.650;2023-02-08T00:51:54;31.80;;;17.85;;
59978;SDS011;45839;44.882;20.650;2023-02-08T00:54:20;39.90;;;19.75;;
59978;SDS011;45839;44.882;20.650;2023-02-08T00:56:46;38.05;;;19.88;;
59978;SDS011;45839;44.882;20.650;2023-02-08T00:59:12;35.42;;;18.95;;
59978;SDS011;45839;44.882;20.650;2023-02-08T01:01:39;38.03;;;19.27;;
59978;SDS011;45839;44.882;20.650;2023-02-08T01:04:05;34.90;;;18.83;;
59978;SDS011;45839;44.882;20.650;2023-02-08T01:06:31;33.17;;;18.45;;
59978;SDS011;45839;44.882;20.650;2023-02-08T01:08:57;35.67;;;18.77;;
59978;SDS011;45839;44.882;20.650;2023-02-08T01:11:24;33.92;;;18.63;;
59978;SDS011;45839;44.882;20.650;2023-02-08T01:13:52;34.25;;;18.52;;
59978;SDS011;45839;44.882;20.650;2023-02-08T01:16:24;36.20;;;18.58;;
59978;SDS011;45839;44.882;20.650;2023-02-08T01:18:51;33.88;;;17.73;;
59978;SDS011;45839;44.882;20.650;2023-02-08T01:21:18;35.03;;;17.60;;
59978;SDS011;45839;44.882;20.650;2023-02-08T01:23:44;32.50;;;18.10;;
59978;SDS011;45839;44.882;20.650;2023-02-08T01:26:11;35.63;;;17.67;;
59978;SDS011;45839;44.882;20.650;2023-02-08T01:28:38;32.03;;;17.17;;
59978;SDS011;45839;44.882;20.650;2023-02-08T01:31:05;31.30;;;17.63;;
59978;SDS011;45839;44.882;20.650;2023-02-08T01:33:32;31.50;;;17.45;;
59978;SDS011;45839;44.882;20.650;2023-02-08T01:35:58;32.95;;;17.58;;
59978;SDS011;45839;44.882;20.650;2023-02-08T01:38:24;33.10;;;17.58;;
59978;SDS011;45839;44.882;20.650;2023-02-08T01:40:50;31.27;;;16.92;;
59978;SDS011;45839;44.882;20.650;2023-02-08T01:45:42;29.98;;;17.52;;
59978;SDS011;45839;44.882;20.650;2023-02-08T01:48:14;34.30;;;17.67;;
59978;SDS011;45839;44.882;20.650;2023-02-08T01:50:44;34.55;;;18.50;;
59978;SDS011;45839;44.882;20.650;2023-02-08T01:53:11;34.65;;;18.83;;
59978;SDS011;45839;44.882;20.650;2023-02-08T01:55:38;33.90;;;17.20;;
59978;SDS011;45839;44.882;20.650;2023-02-08T01:58:08;28.08;;;16.00;;
59978;SDS011;45839;44.882;20.650;2023-02-08T02:00:35;31.45;;;16.17;;
59978;SDS011;45839;44.882;20.650;2023-02-08T02:03:01;30.90;;;17.10;;
59978;SDS011;45839;44.882;20.650;2023-02-08T02:05:31;34.42;;;17.88;;
59978;SDS011;45839;44.882;20.650;2023-02-08T02:07:58;31.27;;;17.08;;
59978;SDS011;45839;44.882;20.650;2023-02-08T02:10:26;29.05;;;16.05;;
59978;SDS011;45839;44.882;20.650;2023-02-08T02:12:52;30.45;;;17.17;;
59978;SDS011;45839;44.882;20.650;2023-02-08T02:15:19;28.40;;;15.43;;
59978;SDS011;45839;44.882;20.650;2023-02-08T02:17:45;31.05;;;17.10;;
59978;SDS011;45839;44.882;20.650;2023-02-08T02:20:29;30.92;;;16.33;;
59978;SDS011;45839;44.882;20.650;2023-02-08T02:23:21;31.17;;;16.08;;
59978;SDS011;45839;44.882;20.650;2023-02-08T02:36:02;30.23;;;16.13;;
59978;SDS011;45839;44.882;20.650;2023-02-08T02:38:38;30.52;;;16.58;;
59978;SDS011;45839;44.882;20.650;2023-02-08T02:41:13;30.77;;;16.67;;
59978;SDS011;45839;44.882;20.650;2023-02-08T02:44:01;28.63;;;15.82;;
59978;SDS011;45839;44.882;20.650;2023-02-08T02:46:40;29.80;;;16.40;;
59978;SDS011;45839;44.882;20.650;2023-02-08T02:49:17;33.97;;;16.17;;
59978;SDS011;45839;44.882;20.650;2023-02-08T02:51:57;31.33;;;16.63;;
59978;SDS011;45839;44.882;20.650;2023-02-08T02:54:28;31.60;;;16.20;;
59978;SDS011;45839;44.882;20.650;2023-02-08T02:56:57;29.08;;;15.68;;
59978;SDS011;45839;44.882;20.650;2023-02-08T02:59:24;29.30;;;15.70;;
59978;SDS011;45839;44.882;20.650;2023-02-08T03:01:52;27.92;;;15.38;;
59978;SDS011;45839;44.882;20.650;2023-02-08T03:12:35;27.77;;;15.98;;
59978;SDS011;45839;44.882;20.650;2023-02-08T03:15:10;29.00;;;16.52;;
59978;SDS011;45839;44.882;20.650;2023-02-08T03:20:22;27.25;;;15.48;;
59978;SDS011;45839;44.882;20.650;2023-02-08T03:22:54;29.40;;;16.20;;
59978;SDS011;45839;44.882;20.650;2023-02-08T03:25:26;27.05;;;15.65;;
59978;SDS011;45839;44.882;20.650;2023-02-08T03:27:56;29.60;;;16.50;;
59978;SDS011;45839;44.882;20.650;2023-02-08T03:30:32;28.17;;;15.95;;
59978;SDS011;45839;44.882;20.650;2023-02-08T03:33:11;27.00;;;16.05;;
59978;SDS011;45839;44.882;20.650;2023-02-08T03:35:49;31.80;;;16.85;;
59978;SDS011;45839;44.882;20.650;2023-02-08T03:38:26;26.25;;;15.30;;
59978;SDS011;45839;44.882;20.650;2023-02-08T03:40:54;26.52;;;15.07;;
59978;SDS011;45839;44.882;20.650;2023-02-08T03:48:46;29.45;;;14.85;;
59978;SDS011;45839;44.882;20.650;2023-02-08T03:51:14;31.00;;;15.90;;
59978;SDS011;45839;44.882;20.650;2023-02-08T03:53:41;27.70;;;15.13;;
59978;SDS011;45839;44.882;20.650;2023-02-08T03:56:15;29.00;;;15.57;;
59978;SDS011;45839;44.882;20.650;2023-02-08T03:58:45;25.25;;;14.95;;
59978;SDS011;45839;44.882;20.650;2023-02-08T04:01:14;32.03;;;16.80;;
59978;SDS011;45839;44.882;20.650;2023-02-08T04:03:41;29.02;;;15.70;;
59978;SDS011;45839;44.882;20.650;2023-02-08T04:06:08;28.25;;;15.40;;
59978;SDS011;45839;44.882;20.650;2023-02-08T04:08:34;26.73;;;14.50;;
59978;SDS011;45839;44.882;20.650;2023-02-08T04:11:00;25.65;;;14.88;;
59978;SDS011;45839;44.882;20.650;2023-02-08T04:13:26;30.73;;;15.45;;
59978;SDS011;45839;44.882;20.650;2023-02-08T04:15:52;27.98;;;15.60;;
59978;SDS011;45839;44.882;20.650;2023-02-08T04:18:18;30.15;;;16.13;;
59978;SDS011;45839;44.882;20.650;2023-02-08T04:20:44;29.83;;;15.75;;
59978;SDS011;45839;44.882;20.650;2023-02-08T04:23:10;27.38;;;15.48;;
59978;SDS011;45839;44.882;20.650;2023-02-08T04:25:36;29.67;;;16.02;;
59978;SDS011;45839;44.882;20.650;2023-02-08T04:28:02;26.25;;;15.15;;
59978;SDS011;45839;44.882;20.650;2023-02-08T04:30:28;26.73;;;15.10;;
59978;SDS011;45839;44.882;20.650;2023-02-08T04:32:54;29.52;;;15.80;;
59978;SDS011;45839;44.882;20.650;2023-02-08T04:35:20;29.13;;;15.55;;
59978;SDS011;45839;44.882;20.650;2023-02-08T04:37:46;28.65;;;15.35;;
59978;SDS011;45839;44.882;20.650;2023-02-08T04:40:12;30.33;;;16.42;;
59978;SDS011;45839;44.882;20.650;2023-02-08T04:42:39;27.63;;;15.35;;
59978;SDS011;45839;44.882;20.650;2023-02-08T04:45:05;29.17;;;15.77;;
59978;SDS011;45839;44.882;20.650;2023-02-08T04:47:31;26.77;;;15.05;;
59978;SDS011;45839;44.882;20.650;2023-02-08T04:49:57;29.25;;;15.45;;
59978;SDS011;45839;44.882;20.650;2023-02-08T04:52:23;28.45;;;15.13;;
59978;SDS011;45839;44.882;20.650;2023-02-08T04:54:50;27.55;;;15.18;;
59978;SDS011;45839;44.882;20.650;2023-02-08T04:57:16;28.40;;;16.02;;
59978;SDS011;45839;44.882;20.650;2023-02-08T04:59:42;29.80;;;17.38;;
59978;SDS011;45839;44.882;20.650;2023-02-08T05:02:08;30.67;;;16.52;;
59978;SDS011;45839;44.882;20.650;2023-02-08T05:04:34;30.17;;;15.85;;
59978;SDS011;45839;44.882;20.650;2023-02-08T05:07:00;29.83;;;16.33;;
59978;SDS011;45839;44.882;20.650;2023-02-08T05:09:26;30.00;;;17.10;;
59978;SDS011;45839;44.882;20.650;2023-02-08T05:11:52;32.78;;;16.73;;
59978;SDS011;45839;44.882;20.650;2023-02-08T05:14:18;34.45;;;17.35;;
59978;SDS011;45839;44.882;20.650;2023-02-08T05:16:45;31.73;;;17.33;;
59978;SDS011;45839;44.882;20.650;2023-02-08T05:19:11;36.20;;;18.73;;
59978;SDS011;45839;44.882;20.650;2023-02-08T05:21:37;33.15;;;18.83;;
59978;SDS011;45839;44.882;20.650;2023-02-08T05:24:03;34.70;;;19.05;;
59978;SDS011;45839;44.882;20.650;2023-02-08T05:26:29;31.70;;;17.52;;
59978;SDS011;45839;44.882;20.650;2023-02-08T05:28:55;32.97;;;18.13;;
59978;SDS011;45839;44.882;20.650;2023-02-08T05:31:22;35.72;;;18.75;;
59978;SDS011;45839;44.882;20.650;2023-02-08T05:33:49;34.08;;;18.00;;
59978;SDS011;45839;44.882;20.650;2023-02-08T05:36:15;32.60;;;17.33;;
59978;SDS011;45839;44.882;20.650;2023-02-08T05:38:41;32.65;;;17.23;;
59978;SDS011;45839;44.882;20.650;2023-02-08T05:41:08;32.17;;;17.02;;
59978;SDS011;45839;44.882;20.650;2023-02-08T05:43:34;29.33;;;15.85;;
59978;SDS011;45839;44.882;20.650;2023-02-08T05:46:01;31.67;;;16.38;;
59978;SDS011;45839;44.882;20.650;2023-02-08T05:48:27;29.58;;;15.52;;
59978;SDS011;45839;44.882;20.650;2023-02-08T05:50:54;30.55;;;15.82;;
59978;SDS011;45839;44.882;20.650;2023-02-08T05:53:21;34.33;;;17.52;;
59978;SDS011;45839;44.882;20.650;2023-02-08T05:55:47;32.63;;;16.85;;
59978;SDS011;45839;44.882;20.650;2023-02-08T05:58:13;33.03;;;18.02;;
59978;SDS011;45839;44.882;20.650;2023-02-08T06:00:39;39.05;;;17.98;;
59978;SDS011;45839;44.882;20.650;2023-02-08T06:03:05;34.35;;;18.27;;
59978;SDS011;45839;44.882;20.650;2023-02-08T06:05:31;33.20;;;18.25;;
59978;SDS011;45839;44.882;20.650;2023-02-08T06:07:58;35.97;;;18.92;;
59978;SDS011;45839;44.882;20.650;2023-02-08T06:10:24;32.15;;;17.13;;
59978;SDS011;45839;44.882;20.650;2023-02-08T06:12:50;33.88;;;18.27;;
59978;SDS011;45839;44.882;20.650;2023-02-08T06:15:16;30.77;;;18.00;;
59978;SDS011;45839;44.882;20.650;2023-02-08T06:17:42;34.35;;;18.67;;
59978;SDS011;45839;44.882;20.650;2023-02-08T06:20:08;36.05;;;19.10;;
59978;SDS011;45839;44.882;20.650;2023-02-08T06:22:34;34.55;;;17.67;;
59978;SDS011;45839;44.882;20.650;2023-02-08T06:25:00;42.88;;;22.02;;
59978;SDS011;45839;44.882;20.650;2023-02-08T06:27:26;38.67;;;20.55;;
59978;SDS011;45839;44.882;20.650;2023-02-08T06:29:52;36.83;;;19.65;;
59978;SDS011;45839;44.882;20.650;2023-02-08T06:32:18;39.80;;;20.45;;
59978;SDS011;45839;44.882;20.650;2023-02-08T06:34:45;38.85;;;20.92;;
59978;SDS011;45839;44.882;20.650;2023-02-08T06:37:12;46.08;;;23.63;;
59978;SDS011;45839;44.882;20.650;2023-02-08T06:39:38;43.92;;;22.00;;
59978;SDS011;45839;44.882;20.650;2023-02-08T06:42:04;35.00;;;20.17;;
59978;SDS011;45839;44.882;20.650;2023-02-08T06:44:30;34.05;;;18.33;;
59978;SDS011;45839;44.882;20.650;2023-02-08T06:46:56;38.63;;;19.13;;
59978;SDS011;45839;44.882;20.650;2023-02-08T06:49:22;34.83;;;18.60;;
59978;SDS011;45839;44.882;20.650;2023-02-08T06:51:48;35.05;;;19.00;;
59978;SDS011;45839;44.882;20.650;2023-02-08T06:54:14;31.00;;;17.05;;
59978;SDS011;45839;44.882;20.650;2023-02-08T06:56:41;33.58;;;17.92;;
59978;SDS011;45839;44.882;20.650;2023-02-08T06:59:07;36.78;;;18.55;;
59978;SDS011;45839;44.882;20.650;2023-02-08T07:01:33;33.72;;;18.90;;
59978;SDS011;45839;44.882;20.650;2023-02-08T07:03:59;29.13;;;17.20;;
59978;SDS011;45839;44.882;20.650;2023-02-08T07:06:25;34.17;;;17.70;;
59978;SDS011;45839;44.882;20.650;2023-02-08T07:08:51;33.90;;;17.65;;
59978;SDS011;45839;44.882;20.650;2023-02-08T07:11:18;34.47;;;18.95;;
59978;SDS011;45839;44.882;20.650;2023-02-08T07:13:50;47.42;;;23.00;;
59978;SDS011;45839;44.882;20.650;2023-02-08T07:16:18;49.42;;;26.20;;
59978;SDS011;45839;44.882;20.650;2023-02-08T07:18:44;49.65;;;25.15;;
59978;SDS011;45839;44.882;20.650;2023-02-08T07:21:11;53.25;;;27.08;;
59978;SDS011;45839;44.882;20.650;2023-02-08T07:23:37;54.58;;;28.58;;
59978;SDS011;45839;44.882;20.650;2023-02-08T07:26:05;52.38;;;28.60;;
59978;SDS011;45839;44.882;20.650;2023-02-08T07:28:31;49.58;;;25.30;;
59978;SDS011;45839;44.882;20.650;2023-02-08T07:30:57;47.53;;;24.50;;
59978;SDS011;45839;44.882;20.650;2023-02-08T07:33:24;48.33;;;25.08;;
59978;SDS011;45839;44.882;20.650;2023-02-08T07:35:50;48.67;;;25.98;;
59978;SDS011;45839;44.882;20.650;2023-02-08T07:38:16;46.92;;;24.88;;
59978;SDS011;45839;44.882;20.650;2023-02-08T07:40:43;48.95;;;24.33;;
59978;SDS011;45839;44.882;20.650;2023-02-08T07:43:09;43.13;;;23.42;;
59978;SDS011;45839;44.882;20.650;2023-02-08T07:45:38;46.10;;;24.05;;
59978;SDS011;45839;44.882;20.650;2023-02-08T07:48:04;45.70;;;24.10;;
59978;SDS011;45839;44.882;20.650;2023-02-08T07:50:30;39.22;;;21.55;;
59978;SDS011;45839;44.882;20.650;2023-02-08T07:52:57;39.00;;;22.48;;
59978;SDS011;45839;44.882;20.650;2023-02-08T07:55:23;40.15;;;20.35;;
59978;SDS011;45839;44.882;20.650;2023-02-08T07:57:49;35.08;;;20.50;;
59978;SDS011;45839;44.882;20.650;2023-02-08T08:00:15;34.92;;;18.90;;
59978;SDS011;45839;44.882;20.650;2023-02-08T08:02:42;31.90;;;17.55;;
59978;SDS011;45839;44.882;20.650;2023-02-08T08:05:09;31.17;;;18.00;;
59978;SDS011;45839;44.882;20.650;2023-02-08T08:07:35;30.42;;;17.58;;
59978;SDS011;45839;44.882;20.650;2023-02-08T08:10:01;31.10;;;18.30;;
59978;SDS011;45839;44.882;20.650;2023-02-08T08:12:28;35.78;;;19.10;;
59978;SDS011;45839;44.882;20.650;2023-02-08T08:14:54;31.75;;;17.42;;
59978;SDS011;45839;44.882;20.650;2023-02-08T08:17:20;36.03;;;17.95;;
59978;SDS011;45839;44.882;20.650;2023-02-08T08:19:46;35.90;;;19.50;;
59978;SDS011;45839;44.882;20.650;2023-02-08T08:22:12;31.70;;;18.38;;
59978;SDS011;45839;44.882;20.650;2023-02-08T08:24:38;36.33;;;19.17;;
59978;SDS011;45839;44.882;20.650;2023-02-08T08:27:04;33.58;;;19.33;;
59978;SDS011;45839;44.882;20.650;2023-02-08T08:29:31;40.53;;;20.27;;
59978;SDS011;45839;44.882;20.650;2023-02-08T08:31:58;37.95;;;20.17;;
59978;SDS011;45839;44.882;20.650;2023-02-08T08:34:24;35.55;;;20.77;;
59978;SDS011;45839;44.882;20.650;2023-02-08T08:36:57;32.42;;;18.48;;
59978;SDS011;45839;44.882;20.650;2023-02-08T08:39:24;39.38;;;20.23;;
59978;SDS011;45839;44.882;20.650;2023-02-08T08:41:51;33.10;;;18.92;;
59978;SDS011;45839;44.882;20.650;2023-02-08T08:44:17;31.70;;;18.63;;
59978;SDS011;45839;44.882;20.650;2023-02-08T08:46:43;34.90;;;19.42;;
59978;SDS011;45839;44.882;20.650;2023-02-08T08:49:09;32.45;;;17.88;;
59978;SDS011;45839;44.882;20.650;2023-02-08T08:51:35;38.08;;;19.10;;
59978;SDS011;45839;44.882;20.650;2023-02-08T08:54:01;34.17;;;20.30;;
59978;SDS011;45839;44.882;20.650;2023-02-08T08:56:28;35.55;;;19.95;;
59978;SDS011;45839;44.882;20.650;2023-02-08T08:58:54;35.92;;;19.92;;
59978;SDS011;45839;44.882;20.650;2023-02-08T09:01:20;32.10;;;17.95;;
59978;SDS011;45839;44.882;20.650;2023-02-08T09:03:46;29.77;;;17.40;;
59978;SDS011;45839;44.882;20.650;2023-02-08T09:06:12;35.15;;;18.92;;
59978;SDS011;45839;44.882;20.650;2023-02-08T09:08:38;52.60;;;27.95;;
59978;SDS011;45839;44.882;20.650;2023-02-08T09:11:08;45.03;;;24.00;;
59978;SDS011;45839;44.882;20.650;2023-02-08T09:13:34;41.25;;;21.30;;
59978;SDS011;45839;44.882;20.650;2023-02-08T09:16:08;38.60;;;20.88;;
59978;SDS011;45839;44.882;20.650;2023-02-08T09:21:10;38.08;;;20.75;;
59978;SDS011;45839;44.882;20.650;2023-02-08T09:23:36;43.58;;;23.95;;
59978;SDS011;45839;44.882;20.650;2023-02-08T09:26:03;32.38;;;17.70;;
59978;SDS011;45839;44.882;20.650;2023-02-08T09:28:29;33.15;;;18.60;;
59978;SDS011;45839;44.882;20.650;2023-02-08T09:30:55;28.27;;;16.13;;
59978;SDS011;45839;44.882;20.650;2023-02-08T09:33:21;32.10;;;16.65;;
59978;SDS011;45839;44.882;20.650;2023-02-08T09:35:47;31.52;;;17.63;;
59978;SDS011;45839;44.882;20.650;2023-02-08T09:38:13;32.28;;;19.08;;
59978;SDS011;45839;44.882;20.650;2023-02-08T09:40:52;36.97;;;19.17;;
59978;SDS011;45839;44.882;20.650;2023-02-08T09:43:24;34.78;;;20.58;;
59978;SDS011;45839;44.882;20.650;2023-02-08T09:45:58;32.97;;;18.67;;
59978;SDS011;45839;44.882;20.650;2023-02-08T09:48:28;46.55;;;24.85;;
59978;SDS011;45839;44.882;20.650;2023-02-08T09:51:08;44.67;;;24.35;;
59978;SDS011;45839;44.882;20.650;2023-02-08T09:53:36;46.22;;;24.77;;
59978;SDS011;45839;44.882;20.650;2023-02-08T09:56:05;40.45;;;22.08;;
59978;SDS011;45839;44.882;20.650;2023-02-08T09:59:05;37.00;;;19.52;;
59978;SDS011;45839;44.882;20.650;2023-02-08T10:01:25;48.63;;;28.23;;
59978;SDS011;45839;44.882;20.650;2023-02-08T10:03:52;35.92;;;19.55;;
59978;SDS011;45839;44.882;20.650;2023-02-08T10:06:20;40.17;;;22.38;;
59978;SDS011;45839;44.882;20.650;2023-02-08T10:08:48;32.40;;;19.10;;
59978;SDS011;45839;44.882;20.650;2023-02-08T10:27:15;61.28;;;33.58;;
59978;SDS011;45839;44.882;20.650;2023-02-08T10:29:56;54.22;;;30.30;;
59978;SDS011;45839;44.882;20.650;2023-02-08T10:35:12;57.47;;;33.00;;
59978;SDS011;45839;44.882;20.650;2023-02-08T10:37:41;45.90;;;26.75;;
59978;SDS011;45839;44.882;20.650;2023-02-08T10:42:41;35.75;;;20.27;;
59978;SDS011;45839;44.882;20.650;2023-02-08T10:47:51;39.92;;;22.05;;
59978;SDS011;45839;44.882;20.650;2023-02-08T10:52:48;44.63;;;24.38;;
59978;SDS011;45839;44.882;20.650;2023-02-08T10:55:15;31.08;;;18.98;;
59978;SDS011;45839;44.882;20.650;2023-02-08T10:57:41;31.30;;;18.20;;
59978;SDS011;45839;44.882;20.650;2023-02-08T11:00:15;33.75;;;17.88;;
59978;SDS011;45839;44.882;20.650;2023-02-08T11:02:43;28.45;;;16.25;;
59978;SDS011;45839;44.882;20.650;2023-02-08T11:05:44;35.33;;;20.08;;
59978;SDS011;45839;44.882;20.650;2023-02-08T11:10:30;28.13;;;17.27;;
59978;SDS011;45839;44.882;20.650;2023-02-08T11:13:01;33.03;;;18.85;;
59978;SDS011;45839;44.882;20.650;2023-02-08T11:15:37;30.80;;;18.42;;
59978;SDS011;45839;44.882;20.650;2023-02-08T11:18:04;29.10;;;17.70;;
59978;SDS011;45839;44.882;20.650;2023-02-08T11:20:32;29.85;;;17.38;;
59978;SDS011;45839;44.882;20.650;2023-02-08T11:23:00;40.20;;;23.63;;
59978;SDS011;45839;44.882;20.650;2023-02-08T11:25:45;37.72;;;21.83;;
59978;SDS011;45839;44.882;20.650;2023-02-08T11:28:27;31.60;;;18.40;;
59978;SDS011;45839;44.882;20.650;2023-02-08T11:30:57;38.03;;;23.88;;
59978;SDS011;45839;44.882;20.650;2023-02-08T11:33:24;38.08;;;20.55;;
59978;SDS011;45839;44.882;20.650;2023-02-08T11:38:20;29.67;;;18.67;;
59978;SDS011;45839;44.882;20.650;2023-02-08T11:40:51;48.22;;;29.13;;
59978;SDS011;45839;44.882;20.650;2023-02-08T11:43:23;29.52;;;18.27;;
59978;SDS011;45839;44.882;20.650;2023-02-08T11:45:50;33.47;;;20.67;;
59978;SDS011;45839;44.882;20.650;2023-02-08T11:51:01;33.67;;;20.40;;
59978;SDS011;45839;44.882;20.650;2023-02-08T11:53:35;30.73;;;17.65;;
59978;SDS011;45839;44.882;20.650;2023-02-08T11:58:40;27.73;;;16.35;;
59978;SDS011;45839;44.882;20.650;2023-02-08T12:01:19;27.27;;;16.95;;
59978;SDS011;45839;44.882;20.650;2023-02-08T12:03:46;29.73;;;17.83;;
59978;SDS011;45839;44.882;20.650;2023-02-08T12:09:05;37.00;;;22.58;;
59978;SDS011;45839;44.882;20.650;2023-02-08T12:11:39;29.02;;;18.77;;
59978;SDS011;45839;44.882;20.650;2023-02-08T12:17:03;28.25;;;18.13;;
59978;SDS011;45839;44.882;20.650;2023-02-08T12:27:28;27.73;;;17.42;;
59978;SDS011;45839;44.882;20.650;2023-02-08T12:32:42;32.42;;;18.92;;
59978;SDS011;45839;44.882;20.650;2023-02-08T12:37:51;41.38;;;25.10;;
59978;SDS011;45839;44.882;20.650;2023-02-08T12:43:22;30.23;;;18.63;;
59978;SDS011;45839;44.882;20.650;2023-02-08T12:51:19;28.75;;;18.48;;
59978;SDS011;45839;44.882;20.650;2023-02-08T12:53:52;27.10;;;17.52;;
59978;SDS011;45839;44.882;20.650;2023-02-08T12:56:27;55.60;;;29.15;;
59978;SDS011;45839;44.882;20.650;2023-02-08T12:58:57;35.03;;;20.77;;
59978;SDS011;45839;44.882;20.650;2023-02-08T13:01:27;30.88;;;19.35;;
59978;SDS011;45839;44.882;20.650;2023-02-08T13:03:56;27.85;;;17.33;;
59978;SDS011;45839;44.882;20.650;2023-02-08T13:06:44;25.27;;;15.57;;
59978;SDS011;45839;44.882;20.650;2023-02-08T13:11:55;27.50;;;17.38;;
59978;SDS011;45839;44.882;20.650;2023-02-08T13:16:49;26.70;;;16.92;;
59978;SDS011;45839;44.882;20.650;2023-02-08T13:19:25;24.42;;;16.40;;
59978;SDS011;45839;44.882;20.650;2023-02-08T13:21:52;25.88;;;15.43;;
59978;SDS011;45839;44.882;20.650;2023-02-08T13:24:38;22.83;;;14.63;;
59978;SDS011;45839;44.882;20.650;2023-02-08T13:27:04;26.05;;;14.65;;
59978;SDS011;45839;44.882;20.650;2023-02-08T13:29:32;22.63;;;14.35;;
59978;SDS011;45839;44.882;20.650;2023-02-08T13:32:03;24.33;;;15.38;;
59978;SDS011;45839;44.882;20.650;2023-02-08T13:36:59;23.58;;;14.45;;
59978;SDS011;45839;44.882;20.650;2023-02-08T13:41:53;20.75;;;13.40;;
59978;SDS011;45839;44.882;20.650;2023-02-08T13:44:21;20.42;;;12.80;;
59978;SDS011;45839;44.882;20.650;2023-02-08T13:46:51;20.65;;;13.40;;
59978;SDS011;45839;44.882;20.650;2023-02-08T13:52:01;20.20;;;11.60;;
59978;SDS011;45839;44.882;20.650;2023-02-08T13:54:28;17.83;;;11.48;;
59978;SDS011;45839;44.882;20.650;2023-02-08T13:56:54;18.73;;;10.68;;
59978;SDS011;45839;44.882;20.650;2023-02-08T14:04:50;20.60;;;11.30;;
59978;SDS011;45839;44.882;20.650;2023-02-08T14:07:19;20.10;;;11.82;;
59978;SDS011;45839;44.882;20.650;2023-02-08T14:14:40;21.20;;;12.50;;
59978;SDS011;45839;44.882;20.650;2023-02-08T14:17:40;22.67;;;14.35;;
59978;SDS011;45839;44.882;20.650;2023-02-08T14:20:00;22.45;;;12.13;;
59978;SDS011;45839;44.882;20.650;2023-02-08T14:22:29;22.95;;;12.48;;
59978;SDS011;45839;44.882;20.650;2023-02-08T14:25:05;25.40;;;13.48;;
59978;SDS011;45839;44.882;20.650;2023-02-08T14:30:03;21.65;;;13.00;;
59978;SDS011;45839;44.882;20.650;2023-02-08T14:32:31;22.35;;;12.50;;
59978;SDS011;45839;44.882;20.650;2023-02-08T14:35:00;22.52;;;13.00;;
59978;SDS011;45839;44.882;20.650;2023-02-08T14:37:28;22.38;;;13.20;;
59978;SDS011;45839;44.882;20.650;2023-02-08T14:45:32;26.73;;;14.55;;
59978;SDS011;45839;44.882;20.650;2023-02-08T14:50:29;28.48;;;15.02;;
59978;SDS011;45839;44.882;20.650;2023-02-08T14:53:12;27.20;;;15.40;;
59978;SDS011;45839;44.882;20.650;2023-02-08T14:55:49;26.08;;;15.65;;
59978;SDS011;45839;44.882;20.650;2023-02-08T14:58:22;28.77;;;15.82;;
59978;SDS011;45839;44.882;20.650;2023-02-08T15:00:50;22.97;;;14.43;;
59978;SDS011;45839;44.882;20.650;2023-02-08T15:03:16;19.63;;;12.30;;
59978;SDS011;45839;44.882;20.650;2023-02-08T15:05:47;19.30;;;11.35;;
59978;SDS011;45839;44.882;20.650;2023-02-08T15:08:19;21.98;;;10.80;;
59978;SDS011;45839;44.882;20.650;2023-02-08T15:10:45;18.73;;;10.82;;
59978;SDS011;45839;44.882;20.650;2023-02-08T15:13:16;20.50;;;11.90;;
59978;SDS011;45839;44.882;20.650;2023-02-08T15:15:43;19.73;;;11.15;;
59978;SDS011;45839;44.882;20.650;2023-02-08T15:18:27;20.35;;;11.93;;
59978;SDS011;45839;44.882;20.650;2023-02-08T15:21:05;22.00;;;12.00;;
59978;SDS011;45839;44.882;20.650;2023-02-08T15:26:21;22.75;;;12.25;;
59978;SDS011;45839;44.882;20.650;2023-02-08T15:28:47;19.35;;;12.02;;
59978;SDS011;45839;44.882;20.650;2023-02-08T15:31:14;30.67;;;12.38;;
59978;SDS011;45839;44.882;20.650;2023-02-08T15:33:41;25.30;;;13.63;;
59978;SDS011;45839;44.882;20.650;2023-02-08T15:38:40;23.65;;;13.48;;
59978;SDS011;45839;44.882;20.650;2023-02-08T15:41:09;22.45;;;13.65;;
59978;SDS011;45839;44.882;20.650;2023-02-08T15:43:37;23.23;;;13.95;;
59978;SDS011;45839;44.882;20.650;2023-02-08T15:46:20;21.50;;;13.45;;
59978;SDS011;45839;44.882;20.650;2023-02-08T15:48:47;21.67;;;13.50;;
59978;SDS011;45839;44.882;20.650;2023-02-08T15:51:13;24.05;;;14.38;;
59978;SDS011;45839;44.882;20.650;2023-02-08T15:53:40;23.50;;;14.30;;
59978;SDS011;45839;44.882;20.650;2023-02-08T15:56:07;25.35;;;15.30;;
59978;SDS011;45839;44.882;20.650;2023-02-08T15:58:40;28.42;;;16.48;;
59978;SDS011;45839;44.882;20.650;2023-02-08T16:01:15;32.85;;;17.55;;
59978;SDS011;45839;44.882;20.650;2023-02-08T16:03:45;30.23;;;18.25;;
59978;SDS011;45839;44.882;20.650;2023-02-08T16:06:11;34.90;;;17.77;;
59978;SDS011;45839;44.882;20.650;2023-02-08T16:08:38;37.55;;;19.13;;
59978;SDS011;45839;44.882;20.650;2023-02-08T16:13:35;43.00;;;21.63;;
59978;SDS011;45839;44.882;20.650;2023-02-08T16:18:41;42.60;;;21.10;;
59978;SDS011;45839;44.882;20.650;2023-02-08T16:21:43;36.83;;;20.83;;
59978;SDS011;45839;44.882;20.650;2023-02-08T16:29:13;42.22;;;26.10;;
59978;SDS011;45839;44.882;20.650;2023-02-08T16:31:40;52.67;;;29.13;;
59978;SDS011;45839;44.882;20.650;2023-02-08T16:34:12;59.42;;;33.13;;
59978;SDS011;45839;44.882;20.650;2023-02-08T16:36:40;59.97;;;32.67;;
59978;SDS011;45839;44.882;20.650;2023-02-08T16:41:58;59.72;;;34.78;;
59978;SDS011;45839;44.882;20.650;2023-02-08T16:44:28;59.00;;;35.22;;